sensor_id;sensor_type;location;lat;lon;timestamp;P1;durP1;ratioP1;P2;durP2;ratioP2
71238;SDS011;61342;51.442;7.370;2023-04-30T00:00:08;10.33;;;7.17;;
71238;SDS011;61342;51.442;7.370;2023-04-30T00:01:09;10.90;;;8.20;;
71238;SDS011;61342;51.442;7.370;2023-04-30T00:02:10;10.07;;;7.90;;
71238;SDS011;61342;51.442;7.370;2023-04-30T00:03:10;9.33;;;7.50;;
71238;SDS011;61342;51.442;7.370;2023-04-30T00:04:10;10.30;;;7.27;;
71238;SDS011;61342;51.442;7.370;2023-04-30T00:05:11;8.20;;;7.17;;
71238;SDS011;61342;51.442;7.370;2023-04-30T00:06:11;10.33;;;7.40;;
71238;SDS011;61342;51.442;7.370;2023-04-30T00:07:12;10.13;;;8.07;;
71238;SDS011;61342;51.442;7.370;2023-04-30T00:08:13;11.50;;;7.87;;
71238;SDS011;61342;51.442;7.370;2023-04-30T00:09:13;11.33;;;7.33;;
71238;SDS011;61342;51.442;7.370;2023-04-30T00:10:14;8.90;;;7.67;;
71238;SDS011;61342;51.442;7.370;2023-04-30T00:11:14;7.87;;;7.07;;
71238;SDS011;61342;51.442;7.370;2023-04-30T00:12:14;9.53;;;7.47;;
71238;SDS011;61342;51.442;7.370;2023-04-30T00:13:15;8.83;;;7.23;;
71238;SDS011;61342;51.442;7.370;2023-04-30T00:14:15;10.03;;;7.67;;
71238;SDS011;61342;51.442;7.370;2023-04-30T00:15:15;8.77;;;7.10;;
71238;SDS011;61342;51.442;7.370;2023-04-30T00:16:16;10.93;;;7.30;;
71238;SDS011;61342;51.442;7.370;2023-04-30T00:17:17;9.17;;;7.30;;
71238;SDS011;61342;51.442;7.370;2023-04-30T00:18:20;9.40;;;7.50;;
71238;SDS011;61342;51.442;7.370;2023-04-30T00:19:20;11.80;;;7.43;;
71238;SDS011;61342;51.442;7.370;2023-04-30T00:20:21;9.13;;;7.40;;
71238;SDS011;61342;51.442;7.370;2023-04-30T00:21:21;9.30;;;7.70;;
71238;SDS011;61342;51.442;7.370;2023-04-30T00:22:22;10.73;;;7.70;;
71238;SDS011;61342;51.442;7.370;2023-04-30T00:23:22;8.67;;;7.40;;
71238;SDS011;61342;51.442;7.370;2023-04-30T00:24:22;9.80;;;7.90;;
71238;SDS011;61342;51.442;7.370;2023-04-30T00:25:23;10.67;;;7.50;;
71238;SDS011;61342;51.442;7.370;2023-04-30T00:26:23;10.80;;;7.80;;
71238;SDS011;61342;51.442;7.370;2023-04-30T00:27:23;10.43;;;8.00;;
71238;SDS011;61342;51.442;7.370;2023-04-30T00:28:24;10.97;;;7.93;;
71238;SDS011;61342;51.442;7.370;2023-04-30T00:29:24;10.77;;;7.47;;
71238;SDS011;61342;51.442;7.370;2023-04-30T00:30:25;9.60;;;7.93;;
71238;SDS011;61342;51.442;7.370;2023-04-30T00:31:25;11.30;;;7.80;;
71238;SDS011;61342;51.442;7.370;2023-04-30T00:32:26;12.30;;;7.40;;
71238;SDS011;61342;51.442;7.370;2023-04-30T00:33:26;9.50;;;7.77;;
71238;SDS011;61342;51.442;7.370;2023-04-30T00:34:26;10.73;;;7.87;;
71238;SDS011;61342;51.442;7.370;2023-04-30T00:35:27;9.43;;;7.37;;
71238;SDS011;61342;51.442;7.370;2023-04-30T00:36:27;11.30;;;7.83;;
71238;SDS011;61342;51.442;7.370;2023-04-30T00:37:27;10.07;;;7.80;;
71238;SDS011;61342;51.442;7.370;2023-04-30T00:38:28;8.80;;;7.73;;
71238;SDS011;61342;51.442;7.370;2023-04-30T00:39:28;11.23;;;7.80;;
71238;SDS011;61342;51.442;7.370;2023-04-30T00:40:28;9.90;;;8.00;;
71238;SDS011;61342;51.442;7.370;2023-04-30T00:41:29;10.60;;;8.10;;
71238;SDS011;61342;51.442;7.370;2023-04-30T00:42:31;12.97;;;7.50;;
71238;SDS011;61342;51.442;7.370;2023-04-30T00:43:31;9.20;;;7.00;;
71238;SDS011;61342;51.442;7.370;2023-04-30T00:44:33;11.20;;;8.20;;
71238;SDS011;61342;51.442;7.370;2023-04-30T00:45:36;9.80;;;8.23;;
71238;SDS011;61342;51.442;7.370;2023-04-30T00:46:36;10.03;;;8.07;;
71238;SDS011;61342;51.442;7.370;2023-04-30T00:47:36;12.27;;;8.13;;
71238;SDS011;61342;51.442;7.370;2023-04-30T00:48:37;12.53;;;8.70;;
71238;SDS011;61342;51.442;7.370;2023-04-30T00:49:40;12.40;;;8.80;;
71238;SDS011;61342;51.442;7.370;2023-04-30T00:50:41;8.93;;;7.93;;
71238;SDS011;61342;51.442;7.370;2023-04-30T00:51:43;10.97;;;8.00;;
71238;SDS011;61342;51.442;7.370;2023-04-30T00:52:44;12.03;;;8.50;;
71238;SDS011;61342;51.442;7.370;2023-04-30T00:53:45;10.20;;;8.33;;
71238;SDS011;61342;51.442;7.370;2023-04-30T00:54:45;11.63;;;9.10;;
71238;SDS011;61342;51.442;7.370;2023-04-30T00:55:46;10.60;;;7.77;;
71238;SDS011;61342;51.442;7.370;2023-04-30T00:56:47;11.57;;;8.63;;
71238;SDS011;61342;51.442;7.370;2023-04-30T00:57:48;10.53;;;7.93;;
71238;SDS011;61342;51.442;7.370;2023-04-30T00:58:49;9.47;;;7.83;;
71238;SDS011;61342;51.442;7.370;2023-04-30T00:59:53;12.63;;;8.40;;
71238;SDS011;61342;51.442;7.370;2023-04-30T01:00:54;8.80;;;7.90;;
71238;SDS011;61342;51.442;7.370;2023-04-30T01:01:55;10.67;;;7.57;;
71238;SDS011;61342;51.442;7.370;2023-04-30T01:02:55;8.20;;;7.40;;
71238;SDS011;61342;51.442;7.370;2023-04-30T01:03:56;11.77;;;8.07;;
71238;SDS011;61342;51.442;7.370;2023-04-30T01:04:57;10.43;;;8.23;;
71238;SDS011;61342;51.442;7.370;2023-04-30T01:06:00;12.50;;;8.30;;
71238;SDS011;61342;51.442;7.370;2023-04-30T01:07:02;8.60;;;7.67;;
71238;SDS011;61342;51.442;7.370;2023-04-30T01:08:02;10.67;;;7.63;;
71238;SDS011;61342;51.442;7.370;2023-04-30T01:09:03;12.30;;;8.13;;
71238;SDS011;61342;51.442;7.370;2023-04-30T01:10:04;10.97;;;8.13;;
71238;SDS011;61342;51.442;7.370;2023-04-30T01:12:26;10.97;;;8.87;;
71238;SDS011;61342;51.442;7.370;2023-04-30T01:13:39;9.37;;;8.37;;
71238;SDS011;61342;51.442;7.370;2023-04-30T01:15:03;10.50;;;8.30;;
71238;SDS011;61342;51.442;7.370;2023-04-30T01:16:10;12.50;;;8.97;;
71238;SDS011;61342;51.442;7.370;2023-04-30T01:18:51;11.43;;;8.27;;
71238;SDS011;61342;51.442;7.370;2023-04-30T01:19:56;16.40;;;7.97;;
71238;SDS011;61342;51.442;7.370;2023-04-30T01:21:00;10.67;;;8.23;;
71238;SDS011;61342;51.442;7.370;2023-04-30T01:22:03;12.40;;;8.77;;
71238;SDS011;61342;51.442;7.370;2023-04-30T01:23:10;11.87;;;8.43;;
71238;SDS011;61342;51.442;7.370;2023-04-30T01:24:48;12.03;;;8.87;;
71238;SDS011;61342;51.442;7.370;2023-04-30T01:26:12;12.20;;;8.83;;
71238;SDS011;61342;51.442;7.370;2023-04-30T01:28:43;10.33;;;8.87;;
71238;SDS011;61342;51.442;7.370;2023-04-30T01:29:45;12.37;;;8.53;;
71238;SDS011;61342;51.442;7.370;2023-04-30T01:30:45;11.93;;;8.47;;
71238;SDS011;61342;51.442;7.370;2023-04-30T01:31:46;11.03;;;8.50;;
71238;SDS011;61342;51.442;7.370;2023-04-30T01:32:46;13.60;;;9.47;;
71238;SDS011;61342;51.442;7.370;2023-04-30T01:33:47;12.40;;;9.20;;
71238;SDS011;61342;51.442;7.370;2023-04-30T01:34:47;13.13;;;9.03;;
71238;SDS011;61342;51.442;7.370;2023-04-30T01:36:58;12.63;;;8.97;;
71238;SDS011;61342;51.442;7.370;2023-04-30T01:43:30;12.20;;;8.60;;
71238;SDS011;61342;51.442;7.370;2023-04-30T01:44:57;12.83;;;8.93;;
71238;SDS011;61342;51.442;7.370;2023-04-30T01:47:23;14.17;;;8.47;;
71238;SDS011;61342;51.442;7.370;2023-04-30T01:51:38;11.93;;;8.90;;
71238;SDS011;61342;51.442;7.370;2023-04-30T01:52:44;13.00;;;9.23;;
71238;SDS011;61342;51.442;7.370;2023-04-30T01:53:46;11.63;;;8.77;;
71238;SDS011;61342;51.442;7.370;2023-04-30T01:56:04;11.63;;;8.97;;
71238;SDS011;61342;51.442;7.370;2023-04-30T01:57:20;11.00;;;8.60;;
71238;SDS011;61342;51.442;7.370;2023-04-30T01:58:27;11.60;;;8.50;;
71238;SDS011;61342;51.442;7.370;2023-04-30T01:59:33;11.93;;;9.27;;
71238;SDS011;61342;51.442;7.370;2023-04-30T02:00:37;14.47;;;9.23;;
71238;SDS011;61342;51.442;7.370;2023-04-30T02:01:37;12.37;;;9.53;;
71238;SDS011;61342;51.442;7.370;2023-04-30T02:02:38;11.00;;;8.73;;
71238;SDS011;61342;51.442;7.370;2023-04-30T02:03:38;12.77;;;9.50;;
71238;SDS011;61342;51.442;7.370;2023-04-30T02:04:38;10.20;;;9.00;;
71238;SDS011;61342;51.442;7.370;2023-04-30T02:05:39;13.73;;;9.60;;
71238;SDS011;61342;51.442;7.370;2023-04-30T02:06:39;11.83;;;9.60;;
71238;SDS011;61342;51.442;7.370;2023-04-30T02:07:41;10.90;;;9.23;;
71238;SDS011;61342;51.442;7.370;2023-04-30T02:08:44;14.33;;;9.90;;
71238;SDS011;61342;51.442;7.370;2023-04-30T02:09:44;12.47;;;9.97;;
71238;SDS011;61342;51.442;7.370;2023-04-30T02:10:44;12.87;;;9.37;;
71238;SDS011;61342;51.442;7.370;2023-04-30T02:11:45;12.40;;;9.80;;
71238;SDS011;61342;51.442;7.370;2023-04-30T02:12:45;13.03;;;9.67;;
71238;SDS011;61342;51.442;7.370;2023-04-30T02:13:46;12.60;;;10.60;;
71238;SDS011;61342;51.442;7.370;2023-04-30T02:14:49;14.23;;;10.07;;
71238;SDS011;61342;51.442;7.370;2023-04-30T02:15:49;15.37;;;9.63;;
71238;SDS011;61342;51.442;7.370;2023-04-30T02:16:50;11.03;;;9.63;;
71238;SDS011;61342;51.442;7.370;2023-04-30T02:17:50;14.90;;;10.30;;
71238;SDS011;61342;51.442;7.370;2023-04-30T02:18:51;11.43;;;9.77;;
71238;SDS011;61342;51.442;7.370;2023-04-30T02:19:51;12.07;;;9.53;;
71238;SDS011;61342;51.442;7.370;2023-04-30T02:20:51;13.30;;;10.13;;
71238;SDS011;61342;51.442;7.370;2023-04-30T02:21:52;13.30;;;10.03;;
71238;SDS011;61342;51.442;7.370;2023-04-30T02:22:52;14.67;;;10.20;;
71238;SDS011;61342;51.442;7.370;2023-04-30T02:23:52;14.63;;;10.47;;
71238;SDS011;61342;51.442;7.370;2023-04-30T02:24:53;12.47;;;10.70;;
71238;SDS011;61342;51.442;7.370;2023-04-30T02:25:54;11.40;;;9.40;;
71238;SDS011;61342;51.442;7.370;2023-04-30T02:26:55;14.60;;;10.40;;
71238;SDS011;61342;51.442;7.370;2023-04-30T02:27:55;12.43;;;9.80;;
71238;SDS011;61342;51.442;7.370;2023-04-30T02:28:55;11.60;;;9.63;;
71238;SDS011;61342;51.442;7.370;2023-04-30T02:29:56;13.60;;;10.30;;
71238;SDS011;61342;51.442;7.370;2023-04-30T02:30:57;10.53;;;9.43;;
71238;SDS011;61342;51.442;7.370;2023-04-30T02:31:57;12.00;;;9.07;;
71238;SDS011;61342;51.442;7.370;2023-04-30T02:32:58;13.63;;;9.50;;
71238;SDS011;61342;51.442;7.370;2023-04-30T02:33:58;13.63;;;9.97;;
71238;SDS011;61342;51.442;7.370;2023-04-30T02:34:59;11.27;;;9.27;;
71238;SDS011;61342;51.442;7.370;2023-04-30T02:36:00;12.30;;;9.63;;
71238;SDS011;61342;51.442;7.370;2023-04-30T02:37:00;13.23;;;9.63;;
71238;SDS011;61342;51.442;7.370;2023-04-30T02:38:02;13.27;;;10.17;;
71238;SDS011;61342;51.442;7.370;2023-04-30T02:39:02;14.57;;;10.40;;
71238;SDS011;61342;51.442;7.370;2023-04-30T02:40:02;13.57;;;10.07;;
71238;SDS011;61342;51.442;7.370;2023-04-30T02:41:04;11.70;;;9.87;;
71238;SDS011;61342;51.442;7.370;2023-04-30T02:42:04;11.90;;;10.27;;
71238;SDS011;61342;51.442;7.370;2023-04-30T02:43:06;12.70;;;10.20;;
71238;SDS011;61342;51.442;7.370;2023-04-30T02:44:06;11.10;;;9.73;;
71238;SDS011;61342;51.442;7.370;2023-04-30T02:45:07;14.03;;;10.67;;
71238;SDS011;61342;51.442;7.370;2023-04-30T02:46:07;14.73;;;10.63;;
71238;SDS011;61342;51.442;7.370;2023-04-30T02:47:08;13.43;;;10.07;;
71238;SDS011;61342;51.442;7.370;2023-04-30T02:48:08;15.97;;;10.70;;
71238;SDS011;61342;51.442;7.370;2023-04-30T02:49:08;12.33;;;9.80;;
71238;SDS011;61342;51.442;7.370;2023-04-30T02:50:09;14.00;;;10.20;;
71238;SDS011;61342;51.442;7.370;2023-04-30T02:51:09;13.30;;;9.63;;
71238;SDS011;61342;51.442;7.370;2023-04-30T02:52:10;11.30;;;9.10;;
71238;SDS011;61342;51.442;7.370;2023-04-30T02:53:10;12.73;;;10.07;;
71238;SDS011;61342;51.442;7.370;2023-04-30T02:54:10;15.63;;;10.30;;
71238;SDS011;61342;51.442;7.370;2023-04-30T02:55:11;12.03;;;9.53;;
71238;SDS011;61342;51.442;7.370;2023-04-30T02:56:11;13.30;;;10.17;;
71238;SDS011;61342;51.442;7.370;2023-04-30T02:57:12;15.03;;;10.17;;
71238;SDS011;61342;51.442;7.370;2023-04-30T02:58:12;14.07;;;9.93;;
71238;SDS011;61342;51.442;7.370;2023-04-30T02:59:12;13.93;;;10.03;;
71238;SDS011;61342;51.442;7.370;2023-04-30T03:00:13;13.43;;;10.67;;
71238;SDS011;61342;51.442;7.370;2023-04-30T03:01:13;14.47;;;10.07;;
71238;SDS011;61342;51.442;7.370;2023-04-30T03:02:14;13.57;;;10.53;;
71238;SDS011;61342;51.442;7.370;2023-04-30T03:03:14;12.30;;;10.40;;
71238;SDS011;61342;51.442;7.370;2023-04-30T03:04:14;13.30;;;10.57;;
71238;SDS011;61342;51.442;7.370;2023-04-30T03:05:15;17.70;;;10.77;;
71238;SDS011;61342;51.442;7.370;2023-04-30T03:06:15;14.47;;;11.07;;
71238;SDS011;61342;51.442;7.370;2023-04-30T03:07:15;14.47;;;10.70;;
71238;SDS011;61342;51.442;7.370;2023-04-30T03:08:16;13.07;;;10.67;;
71238;SDS011;61342;51.442;7.370;2023-04-30T03:09:16;13.70;;;10.67;;
71238;SDS011;61342;51.442;7.370;2023-04-30T03:10:17;13.83;;;11.63;;
71238;SDS011;61342;51.442;7.370;2023-04-30T03:11:18;15.37;;;11.33;;
71238;SDS011;61342;51.442;7.370;2023-04-30T03:12:18;15.07;;;11.40;;
71238;SDS011;61342;51.442;7.370;2023-04-30T03:13:18;15.80;;;11.77;;
71238;SDS011;61342;51.442;7.370;2023-04-30T03:14:19;13.27;;;11.43;;
71238;SDS011;61342;51.442;7.370;2023-04-30T03:15:20;13.03;;;11.07;;
71238;SDS011;61342;51.442;7.370;2023-04-30T03:16:20;14.30;;;10.87;;
71238;SDS011;61342;51.442;7.370;2023-04-30T03:17:21;15.20;;;11.30;;
71238;SDS011;61342;51.442;7.370;2023-04-30T03:18:22;12.43;;;11.13;;
71238;SDS011;61342;51.442;7.370;2023-04-30T03:19:22;11.83;;;9.97;;
71238;SDS011;61342;51.442;7.370;2023-04-30T03:20:24;15.03;;;11.20;;
71238;SDS011;61342;51.442;7.370;2023-04-30T03:21:24;13.20;;;11.17;;
71238;SDS011;61342;51.442;7.370;2023-04-30T03:22:25;17.17;;;10.83;;
71238;SDS011;61342;51.442;7.370;2023-04-30T03:23:26;14.33;;;11.20;;
71238;SDS011;61342;51.442;7.370;2023-04-30T03:24:27;13.33;;;10.40;;
71238;SDS011;61342;51.442;7.370;2023-04-30T03:25:27;14.40;;;10.97;;
71238;SDS011;61342;51.442;7.370;2023-04-30T03:26:28;12.90;;;10.40;;
71238;SDS011;61342;51.442;7.370;2023-04-30T03:27:28;11.90;;;10.27;;
71238;SDS011;61342;51.442;7.370;2023-04-30T03:28:29;13.40;;;10.33;;
71238;SDS011;61342;51.442;7.370;2023-04-30T03:29:29;16.00;;;11.00;;
71238;SDS011;61342;51.442;7.370;2023-04-30T03:30:29;12.20;;;10.10;;
71238;SDS011;61342;51.442;7.370;2023-04-30T03:31:30;14.23;;;10.63;;
71238;SDS011;61342;51.442;7.370;2023-04-30T03:32:30;17.10;;;10.20;;
71238;SDS011;61342;51.442;7.370;2023-04-30T03:33:31;12.97;;;10.67;;
71238;SDS011;61342;51.442;7.370;2023-04-30T03:34:32;14.73;;;10.80;;
71238;SDS011;61342;51.442;7.370;2023-04-30T03:35:32;13.47;;;10.90;;
71238;SDS011;61342;51.442;7.370;2023-04-30T03:36:33;14.33;;;11.40;;
71238;SDS011;61342;51.442;7.370;2023-04-30T03:37:33;14.57;;;11.47;;
71238;SDS011;61342;51.442;7.370;2023-04-30T03:38:34;13.40;;;11.47;;
71238;SDS011;61342;51.442;7.370;2023-04-30T03:39:34;14.83;;;11.77;;
71238;SDS011;61342;51.442;7.370;2023-04-30T03:40:35;16.73;;;11.53;;
71238;SDS011;61342;51.442;7.370;2023-04-30T03:41:35;14.07;;;10.93;;
71238;SDS011;61342;51.442;7.370;2023-04-30T03:42:35;18.27;;;12.40;;
71238;SDS011;61342;51.442;7.370;2023-04-30T03:43:36;16.17;;;11.90;;
71238;SDS011;61342;51.442;7.370;2023-04-30T03:44:37;16.23;;;12.20;;
71238;SDS011;61342;51.442;7.370;2023-04-30T03:45:38;16.77;;;12.67;;
71238;SDS011;61342;51.442;7.370;2023-04-30T03:46:38;18.10;;;12.90;;
71238;SDS011;61342;51.442;7.370;2023-04-30T03:47:38;18.50;;;12.60;;
71238;SDS011;61342;51.442;7.370;2023-04-30T03:48:39;16.93;;;12.27;;
71238;SDS011;61342;51.442;7.370;2023-04-30T03:49:39;15.17;;;11.93;;
71238;SDS011;61342;51.442;7.370;2023-04-30T03:50:39;14.00;;;12.50;;
71238;SDS011;61342;51.442;7.370;2023-04-30T03:51:40;14.33;;;11.70;;
71238;SDS011;61342;51.442;7.370;2023-04-30T03:52:40;14.40;;;12.30;;
71238;SDS011;61342;51.442;7.370;2023-04-30T03:53:41;14.83;;;11.97;;
71238;SDS011;61342;51.442;7.370;2023-04-30T03:54:41;15.37;;;11.63;;
71238;SDS011;61342;51.442;7.370;2023-04-30T03:55:41;15.63;;;12.27;;
71238;SDS011;61342;51.442;7.370;2023-04-30T03:56:42;15.30;;;11.63;;
71238;SDS011;61342;51.442;7.370;2023-04-30T03:57:43;15.73;;;12.23;;
71238;SDS011;61342;51.442;7.370;2023-04-30T03:58:43;16.30;;;12.27;;
71238;SDS011;61342;51.442;7.370;2023-04-30T03:59:44;16.27;;;12.73;;
71238;SDS011;61342;51.442;7.370;2023-04-30T04:00:44;17.23;;;11.33;;
71238;SDS011;61342;51.442;7.370;2023-04-30T04:01:46;15.90;;;12.10;;
71238;SDS011;61342;51.442;7.370;2023-04-30T04:02:47;14.60;;;12.23;;
71238;SDS011;61342;51.442;7.370;2023-04-30T04:03:47;15.00;;;12.07;;
71238;SDS011;61342;51.442;7.370;2023-04-30T04:04:48;14.57;;;12.50;;
71238;SDS011;61342;51.442;7.370;2023-04-30T04:05:48;15.23;;;12.00;;
71238;SDS011;61342;51.442;7.370;2023-04-30T04:06:49;15.27;;;12.00;;
71238;SDS011;61342;51.442;7.370;2023-04-30T04:07:49;16.40;;;12.00;;
71238;SDS011;61342;51.442;7.370;2023-04-30T04:08:50;16.87;;;12.50;;
71238;SDS011;61342;51.442;7.370;2023-04-30T04:09:50;13.63;;;11.63;;
71238;SDS011;61342;51.442;7.370;2023-04-30T04:10:50;13.33;;;11.77;;
71238;SDS011;61342;51.442;7.370;2023-04-30T04:11:51;16.17;;;11.33;;
71238;SDS011;61342;51.442;7.370;2023-04-30T04:12:51;15.33;;;11.63;;
71238;SDS011;61342;51.442;7.370;2023-04-30T04:13:52;13.40;;;11.50;;
71238;SDS011;61342;51.442;7.370;2023-04-30T04:14:52;15.33;;;11.40;;
71238;SDS011;61342;51.442;7.370;2023-04-30T04:15:52;13.03;;;11.07;;
71238;SDS011;61342;51.442;7.370;2023-04-30T04:16:53;14.10;;;11.63;;
71238;SDS011;61342;51.442;7.370;2023-04-30T04:17:53;14.80;;;11.13;;
71238;SDS011;61342;51.442;7.370;2023-04-30T04:18:53;13.93;;;10.50;;
71238;SDS011;61342;51.442;7.370;2023-04-30T04:19:54;14.23;;;10.53;;
71238;SDS011;61342;51.442;7.370;2023-04-30T04:20:54;12.90;;;10.77;;
71238;SDS011;61342;51.442;7.370;2023-04-30T04:21:55;12.27;;;9.70;;
71238;SDS011;61342;51.442;7.370;2023-04-30T04:22:56;13.37;;;10.53;;
71238;SDS011;61342;51.442;7.370;2023-04-30T04:23:56;12.97;;;10.13;;
71238;SDS011;61342;51.442;7.370;2023-04-30T04:24:57;13.47;;;10.20;;
71238;SDS011;61342;51.442;7.370;2023-04-30T04:25:57;13.53;;;11.63;;
71238;SDS011;61342;51.442;7.370;2023-04-30T04:26:59;14.30;;;10.90;;
71238;SDS011;61342;51.442;7.370;2023-04-30T04:28:03;17.40;;;11.40;;
71238;SDS011;61342;51.442;7.370;2023-04-30T04:29:03;14.60;;;11.13;;
71238;SDS011;61342;51.442;7.370;2023-04-30T04:30:04;16.13;;;11.83;;
71238;SDS011;61342;51.442;7.370;2023-04-30T04:31:04;14.93;;;12.13;;
71238;SDS011;61342;51.442;7.370;2023-04-30T04:32:05;14.93;;;12.43;;
71238;SDS011;61342;51.442;7.370;2023-04-30T04:33:05;16.27;;;11.97;;
71238;SDS011;61342;51.442;7.370;2023-04-30T04:34:06;15.80;;;12.07;;
71238;SDS011;61342;51.442;7.370;2023-04-30T04:35:06;14.13;;;12.57;;
71238;SDS011;61342;51.442;7.370;2023-04-30T04:36:07;16.77;;;12.63;;
71238;SDS011;61342;51.442;7.370;2023-04-30T04:37:07;14.90;;;12.60;;
71238;SDS011;61342;51.442;7.370;2023-04-30T04:38:08;19.63;;;13.80;;
71238;SDS011;61342;51.442;7.370;2023-04-30T04:39:09;18.67;;;13.03;;
71238;SDS011;61342;51.442;7.370;2023-04-30T04:40:10;16.10;;;13.23;;
71238;SDS011;61342;51.442;7.370;2023-04-30T04:41:11;15.70;;;13.40;;
71238;SDS011;61342;51.442;7.370;2023-04-30T04:42:11;20.37;;;14.80;;
71238;SDS011;61342;51.442;7.370;2023-04-30T04:43:13;23.60;;;14.33;;
71238;SDS011;61342;51.442;7.370;2023-04-30T04:44:13;16.70;;;13.90;;
71238;SDS011;61342;51.442;7.370;2023-04-30T04:45:13;18.17;;;14.20;;
71238;SDS011;61342;51.442;7.370;2023-04-30T04:46:14;20.73;;;14.03;;
71238;SDS011;61342;51.442;7.370;2023-04-30T04:47:15;17.93;;;14.30;;
71238;SDS011;61342;51.442;7.370;2023-04-30T04:48:18;19.50;;;14.10;;
71238;SDS011;61342;51.442;7.370;2023-04-30T04:49:19;17.97;;;15.00;;
71238;SDS011;61342;51.442;7.370;2023-04-30T04:50:19;21.57;;;15.70;;
71238;SDS011;61342;51.442;7.370;2023-04-30T04:51:20;17.17;;;14.37;;
71238;SDS011;61342;51.442;7.370;2023-04-30T04:52:20;19.27;;;14.93;;
71238;SDS011;61342;51.442;7.370;2023-04-30T04:53:21;20.17;;;15.20;;
71238;SDS011;61342;51.442;7.370;2023-04-30T04:54:21;18.60;;;14.53;;
71238;SDS011;61342;51.442;7.370;2023-04-30T04:55:21;19.53;;;14.93;;
71238;SDS011;61342;51.442;7.370;2023-04-30T04:56:22;17.30;;;15.00;;
71238;SDS011;61342;51.442;7.370;2023-04-30T04:57:22;19.17;;;15.10;;
71238;SDS011;61342;51.442;7.370;2023-04-30T04:58:23;19.50;;;14.83;;
71238;SDS011;61342;51.442;7.370;2023-04-30T04:59:23;21.87;;;16.00;;
71238;SDS011;61342;51.442;7.370;2023-04-30T05:00:24;20.80;;;15.03;;
71238;SDS011;61342;51.442;7.370;2023-04-30T05:01:24;18.20;;;14.93;;
71238;SDS011;61342;51.442;7.370;2023-04-30T05:02:25;24.00;;;15.77;;
71238;SDS011;61342;51.442;7.370;2023-04-30T05:03:26;17.13;;;15.03;;
71238;SDS011;61342;51.442;7.370;2023-04-30T05:04:27;18.30;;;14.43;;
71238;SDS011;61342;51.442;7.370;2023-04-30T05:05:29;22.23;;;15.90;;
71238;SDS011;61342;51.442;7.370;2023-04-30T05:06:29;18.70;;;15.00;;
71238;SDS011;61342;51.442;7.370;2023-04-30T05:07:31;20.73;;;15.00;;
71238;SDS011;61342;51.442;7.370;2023-04-30T05:08:31;17.63;;;15.63;;
71238;SDS011;61342;51.442;7.370;2023-04-30T05:09:32;16.63;;;14.10;;
71238;SDS011;61342;51.442;7.370;2023-04-30T05:10:32;18.00;;;14.50;;
71238;SDS011;61342;51.442;7.370;2023-04-30T05:11:34;17.00;;;15.03;;
71238;SDS011;61342;51.442;7.370;2023-04-30T05:12:35;17.17;;;14.40;;
71238;SDS011;61342;51.442;7.370;2023-04-30T05:13:35;22.07;;;14.77;;
71238;SDS011;61342;51.442;7.370;2023-04-30T05:14:36;18.47;;;15.30;;
71238;SDS011;61342;51.442;7.370;2023-04-30T05:15:36;18.07;;;13.83;;
71238;SDS011;61342;51.442;7.370;2023-04-30T05:16:36;19.93;;;15.20;;
71238;SDS011;61342;51.442;7.370;2023-04-30T05:17:37;15.70;;;14.07;;
71238;SDS011;61342;51.442;7.370;2023-04-30T05:18:40;19.20;;;14.83;;
71238;SDS011;61342;51.442;7.370;2023-04-30T05:19:40;18.43;;;14.90;;
71238;SDS011;61342;51.442;7.370;2023-04-30T05:20:41;18.23;;;15.53;;
71238;SDS011;61342;51.442;7.370;2023-04-30T05:21:41;20.10;;;14.90;;
71238;SDS011;61342;51.442;7.370;2023-04-30T05:22:41;17.77;;;14.60;;
71238;SDS011;61342;51.442;7.370;2023-04-30T05:23:43;17.73;;;14.87;;
71238;SDS011;61342;51.442;7.370;2023-04-30T05:24:43;20.30;;;15.30;;
71238;SDS011;61342;51.442;7.370;2023-04-30T05:25:44;18.23;;;15.17;;
71238;SDS011;61342;51.442;7.370;2023-04-30T05:26:45;22.17;;;15.30;;
71238;SDS011;61342;51.442;7.370;2023-04-30T05:27:45;18.53;;;16.03;;
71238;SDS011;61342;51.442;7.370;2023-04-30T05:28:46;19.67;;;15.17;;
71238;SDS011;61342;51.442;7.370;2023-04-30T05:29:46;19.20;;;15.07;;
71238;SDS011;61342;51.442;7.370;2023-04-30T05:30:46;20.63;;;14.30;;
71238;SDS011;61342;51.442;7.370;2023-04-30T05:31:47;19.40;;;15.33;;
71238;SDS011;61342;51.442;7.370;2023-04-30T05:32:47;18.97;;;15.40;;
71238;SDS011;61342;51.442;7.370;2023-04-30T05:33:50;17.90;;;14.30;;
71238;SDS011;61342;51.442;7.370;2023-04-30T05:34:51;17.17;;;14.80;;
71238;SDS011;61342;51.442;7.370;2023-04-30T05:35:51;18.20;;;14.47;;
71238;SDS011;61342;51.442;7.370;2023-04-30T05:36:52;19.80;;;15.10;;
71238;SDS011;61342;51.442;7.370;2023-04-30T05:37:52;19.87;;;15.33;;
71238;SDS011;61342;51.442;7.370;2023-04-30T05:38:53;16.90;;;14.33;;
71238;SDS011;61342;51.442;7.370;2023-04-30T05:39:53;17.70;;;14.67;;
71238;SDS011;61342;51.442;7.370;2023-04-30T05:40:54;18.87;;;14.83;;
71238;SDS011;61342;51.442;7.370;2023-04-30T05:41:54;18.07;;;14.90;;
71238;SDS011;61342;51.442;7.370;2023-04-30T05:42:55;17.10;;;13.63;;
71238;SDS011;61342;51.442;7.370;2023-04-30T05:43:55;18.10;;;15.53;;
71238;SDS011;61342;51.442;7.370;2023-04-30T05:44:55;19.83;;;15.27;;
71238;SDS011;61342;51.442;7.370;2023-04-30T05:45:56;20.47;;;16.57;;
71238;SDS011;61342;51.442;7.370;2023-04-30T05:46:56;19.53;;;15.27;;
71238;SDS011;61342;51.442;7.370;2023-04-30T05:47:57;19.77;;;15.33;;
71238;SDS011;61342;51.442;7.370;2023-04-30T05:48:57;19.37;;;14.30;;
71238;SDS011;61342;51.442;7.370;2023-04-30T05:49:57;19.03;;;15.27;;
71238;SDS011;61342;51.442;7.370;2023-04-30T05:50:58;19.23;;;15.17;;
71238;SDS011;61342;51.442;7.370;2023-04-30T05:51:58;18.33;;;15.10;;
71238;SDS011;61342;51.442;7.370;2023-04-30T05:52:59;16.63;;;14.63;;
71238;SDS011;61342;51.442;7.370;2023-04-30T05:53:59;20.57;;;15.80;;
71238;SDS011;61342;51.442;7.370;2023-04-30T05:54:59;16.73;;;14.30;;
71238;SDS011;61342;51.442;7.370;2023-04-30T05:56:00;17.90;;;14.90;;
71238;SDS011;61342;51.442;7.370;2023-04-30T05:57:00;17.50;;;15.57;;
71238;SDS011;61342;51.442;7.370;2023-04-30T05:58:01;21.90;;;15.37;;
71238;SDS011;61342;51.442;7.370;2023-04-30T05:59:01;17.27;;;14.47;;
71238;SDS011;61342;51.442;7.370;2023-04-30T06:00:02;16.47;;;14.47;;
71238;SDS011;61342;51.442;7.370;2023-04-30T06:01:05;16.37;;;14.63;;
71238;SDS011;61342;51.442;7.370;2023-04-30T06:02:06;18.70;;;14.63;;
71238;SDS011;61342;51.442;7.370;2023-04-30T06:03:06;20.93;;;14.43;;
71238;SDS011;61342;51.442;7.370;2023-04-30T06:04:07;20.83;;;15.30;;
71238;SDS011;61342;51.442;7.370;2023-04-30T06:05:08;18.03;;;14.37;;
71238;SDS011;61342;51.442;7.370;2023-04-30T06:06:08;17.23;;;14.50;;
71238;SDS011;61342;51.442;7.370;2023-04-30T06:07:09;17.60;;;14.13;;
71238;SDS011;61342;51.442;7.370;2023-04-30T06:08:10;17.43;;;13.77;;
71238;SDS011;61342;51.442;7.370;2023-04-30T06:09:10;16.90;;;14.17;;
71238;SDS011;61342;51.442;7.370;2023-04-30T06:10:11;17.43;;;14.50;;
71238;SDS011;61342;51.442;7.370;2023-04-30T06:11:11;16.20;;;13.63;;
71238;SDS011;61342;51.442;7.370;2023-04-30T06:12:12;18.23;;;13.47;;
71238;SDS011;61342;51.442;7.370;2023-04-30T06:13:13;18.30;;;14.03;;
71238;SDS011;61342;51.442;7.370;2023-04-30T06:14:13;17.17;;;14.67;;
71238;SDS011;61342;51.442;7.370;2023-04-30T06:15:14;19.27;;;13.90;;
71238;SDS011;61342;51.442;7.370;2023-04-30T06:16:14;18.33;;;14.67;;
71238;SDS011;61342;51.442;7.370;2023-04-30T06:17:15;16.97;;;14.43;;